createdAt,value
2019-05-07T00:01:12.290Z,8.30
2019-05-07T00:03:42.265Z,8.30
2019-05-07T00:06:12.411Z,8.30
2019-05-07T00:08:44.663Z,8.30
2019-05-07T00:11:13.020Z,8.30
2019-05-07T00:13:44.351Z,8.30
2019-05-07T00:16:13.505Z,8.30
2019-05-07T00:18:43.047Z,8.30
2019-05-07T00:21:12.736Z,8.30
2019-05-07T00:23:43.319Z,8.30
2019-05-07T00:26:13.287Z,8.20
2019-05-07T00:28:43.441Z,8.20
2019-05-07T00:31:13.193Z,8.20
2019-05-07T00:33:43.223Z,8.20
2019-05-07T00:36:28.170Z,8.20
2019-05-07T00:39:06.049Z,8.10
2019-05-07T00:41:44.818Z,8.10
2019-05-07T00:44:14.795Z,8.10
2019-05-07T00:47:03.249Z,8.10
2019-05-07T00:49:33.110Z,8.10
2019-05-07T00:52:02.919Z,8.00
2019-05-07T00:54:32.619Z,8.00
2019-05-07T00:57:03.071Z,8.00
2019-05-07T00:59:32.672Z,8.00
2019-05-07T01:02:02.335Z,8.00
2019-05-07T01:04:33.160Z,8.00
2019-05-07T01:07:02.865Z,8.00
2019-05-07T01:09:32.475Z,7.90
2019-05-07T01:12:03.135Z,8.00
2019-05-07T01:14:32.673Z,7.90
2019-05-07T01:17:02.531Z,7.90
2019-05-07T01:19:32.841Z,7.90
2019-05-07T01:22:03.196Z,7.90
2019-05-07T01:24:32.808Z,7.90
2019-05-07T01:27:02.260Z,7.90
2019-05-07T01:29:32.876Z,7.90
2019-05-07T01:32:09.809Z,7.90
2019-05-07T01:35:02.469Z,7.90
2019-05-07T01:37:32.613Z,7.90
2019-05-07T01:40:03.041Z,7.90
2019-05-07T01:42:33.125Z,7.90
2019-05-07T01:45:04.074Z,7.90
2019-05-07T01:47:33.413Z,7.90
2019-05-07T01:50:03.180Z,7.90
2019-05-07T01:52:33.256Z,7.90
2019-05-07T01:55:03.329Z,7.90
2019-05-07T01:57:32.889Z,7.90
2019-05-07T02:00:02.735Z,7.90
2019-05-07T02:02:48.161Z,7.90
2019-05-07T02:05:32.499Z,7.90
2019-05-07T02:08:03.614Z,7.90
2019-05-07T02:10:42.736Z,7.90
2019-05-07T02:13:12.562Z,7.90
2019-05-07T02:15:42.764Z,7.90
2019-05-07T02:18:13.167Z,7.80
2019-05-07T02:20:42.817Z,7.80
2019-05-07T02:23:12.799Z,7.80
2019-05-07T02:25:42.373Z,7.80
2019-05-07T02:28:12.820Z,7.80
2019-05-07T02:30:44.464Z,7.80
2019-05-07T02:33:13.957Z,7.80
2019-05-07T02:35:44.005Z,7.70
2019-05-07T02:38:30.207Z,7.70
2019-05-07T02:41:05.923Z,7.60
2019-05-07T02:43:35.240Z,7.60
2019-05-07T02:46:31.653Z,7.60
2019-05-07T02:49:04.424Z,7.50
2019-05-07T02:51:39.294Z,7.50
2019-05-07T02:54:32.898Z,7.50
2019-05-07T02:57:03.223Z,7.50
2019-05-07T02:59:33.568Z,7.40
2019-05-07T03:02:03.746Z,7.40
2019-05-07T03:04:33.531Z,7.30
2019-05-07T03:07:03.825Z,7.30
2019-05-07T03:09:33.432Z,7.20
2019-05-07T03:12:03.950Z,7.20
2019-05-07T03:14:33.583Z,7.20
2019-05-07T03:17:03.268Z,7.20
2019-05-07T03:19:34.621Z,7.20
2019-05-07T03:22:04.100Z,7.20
2019-05-07T03:24:48.090Z,7.10
2019-05-07T03:27:17.452Z,7.10
2019-05-07T03:29:54.498Z,7.00
2019-05-07T03:32:36.633Z,7.00
2019-05-07T03:35:16.676Z,7.00
2019-05-07T03:37:46.381Z,6.90
2019-05-07T03:40:15.708Z,6.90
2019-05-07T03:42:45.169Z,6.80
2019-05-07T03:45:24.921Z,6.80
2019-05-07T03:48:05.052Z,6.70
2019-05-07T03:50:34.391Z,6.70
2019-05-07T03:53:03.744Z,6.70
2019-05-07T03:55:33.420Z,6.60
2019-05-07T03:58:03.253Z,6.60
2019-05-07T04:00:33.399Z,6.60
2019-05-07T04:03:03.642Z,6.50
2019-05-07T04:05:34.293Z,6.50
2019-05-07T04:08:04.002Z,6.50
2019-05-07T04:10:33.954Z,6.50
2019-05-07T04:13:04.473Z,6.50
2019-05-07T04:15:34.292Z,6.50
2019-05-07T04:18:03.936Z,6.50
2019-05-07T04:20:33.615Z,6.50
2019-05-07T04:23:04.367Z,6.50
2019-05-07T04:25:47.140Z,6.50
2019-05-07T04:28:25.198Z,6.50
2019-05-07T04:30:55.467Z,6.50
2019-05-07T04:33:26.776Z,6.50
2019-05-07T04:36:14.301Z,6.50
2019-05-07T04:38:44.205Z,6.50
2019-05-07T04:41:14.095Z,6.40
2019-05-07T04:43:43.797Z,6.50
2019-05-07T04:46:14.381Z,6.50
2019-05-07T04:48:44.335Z,6.50
2019-05-07T04:51:16.019Z,6.50
2019-05-07T04:53:45.417Z,6.50
2019-05-07T04:56:14.838Z,6.50
2019-05-07T04:58:44.345Z,6.50
2019-05-07T05:01:15.560Z,6.50
2019-05-07T05:03:45.050Z,6.60
2019-05-07T05:06:14.543Z,6.60
2019-05-07T05:08:43.986Z,6.60
2019-05-07T05:11:13.416Z,6.60
2019-05-07T05:14:02.793Z,6.60
2019-05-07T05:16:32.956Z,6.70
2019-05-07T05:19:02.596Z,6.70
2019-05-07T05:21:52.853Z,6.80
2019-05-07T05:24:27.704Z,6.80
2019-05-07T05:26:57.244Z,6.90
2019-05-07T05:29:26.557Z,6.90
2019-05-07T05:31:55.979Z,7.00
2019-05-07T05:34:25.349Z,7.00
2019-05-07T05:36:54.736Z,7.00
2019-05-07T05:39:24.084Z,7.00
2019-05-07T05:41:58.723Z,7.00
2019-05-07T05:44:32.004Z,7.00
2019-05-07T05:47:02.414Z,7.00
2019-05-07T05:49:32.284Z,7.00
2019-05-07T05:52:23.632Z,7.00
2019-05-07T05:55:06.776Z,7.00
2019-05-07T05:57:49.303Z,6.90
2019-05-07T06:00:38.107Z,6.90
2019-05-07T06:03:25.467Z,6.90
2019-05-07T06:06:02.078Z,6.80
2019-05-07T06:08:52.436Z,6.80
2019-05-07T06:14:54.033Z,6.70
2019-05-07T06:17:37.024Z,6.70
2019-05-07T06:20:28.261Z,6.80
2019-05-07T06:23:32.973Z,6.80
2019-05-07T06:26:05.048Z,6.80
2019-05-07T06:28:33.808Z,6.90
2019-05-07T06:31:27.114Z,6.90
2019-05-07T06:33:56.465Z,7.00
2019-05-07T06:36:26.213Z,7.00
2019-05-07T06:39:02.070Z,7.10
2019-05-07T06:41:49.296Z,7.10
2019-05-07T06:44:22.362Z,7.20
2019-05-07T06:46:52.630Z,7.20
2019-05-07T06:49:22.394Z,7.20
2019-05-07T06:51:52.834Z,7.30
2019-05-07T06:54:22.673Z,7.20
2019-05-07T06:56:52.463Z,7.30
2019-05-07T06:59:46.928Z,7.30
2019-05-07T07:02:35.070Z,7.30
2019-05-07T07:05:19.105Z,7.30
2019-05-07T07:07:55.859Z,7.30
2019-05-07T07:10:42.790Z,7.20
2019-05-07T07:13:12.131Z,7.20
2019-05-07T07:15:42.693Z,7.20
2019-05-07T07:18:12.362Z,7.30
2019-05-07T07:20:43.037Z,7.40
2019-05-07T07:23:12.526Z,7.60
2019-05-07T07:25:43.002Z,7.70
2019-05-07T07:28:12.522Z,7.80
2019-05-07T07:30:57.404Z,8.00
2019-05-07T07:33:29.108Z,8.10
2019-05-07T07:35:58.464Z,8.20
2019-05-07T07:38:34.352Z,8.20
2019-05-07T07:41:12.759Z,8.20
2019-05-07T07:43:42.390Z,8.30
2019-05-07T07:46:13.118Z,8.30
2019-05-07T07:48:43.504Z,8.30
2019-05-07T07:51:13.781Z,8.30
2019-05-07T07:53:43.454Z,8.30
2019-05-07T07:56:48.376Z,8.30
2019-05-07T07:59:09.217Z,8.40
2019-05-07T08:01:52.759Z,8.40
2019-05-07T08:04:22.832Z,8.50
2019-05-07T08:07:03.037Z,8.50
2019-05-07T08:09:33.522Z,8.60
2019-05-07T08:12:03.411Z,8.60
2019-05-07T08:14:33.064Z,8.60
2019-05-07T08:17:04.167Z,8.70
2019-05-07T08:19:33.563Z,8.70
2019-05-07T08:22:03.163Z,8.70
2019-05-07T08:28:02.924Z,8.90
2019-05-07T08:30:32.808Z,9.00
2019-05-07T08:36:32.975Z,9.20
2019-05-07T08:39:02.592Z,9.20
2019-05-07T08:41:32.149Z,9.30
2019-05-07T08:44:11.566Z,9.30
2019-05-07T08:47:02.808Z,9.30
2019-05-07T08:49:39.388Z,9.30
2019-05-07T08:52:03.809Z,9.40
2019-05-07T08:54:34.211Z,9.40
2019-05-07T08:57:03.799Z,9.40
2019-05-07T08:59:34.341Z,9.40
2019-05-07T09:02:03.944Z,9.40
2019-05-07T09:04:33.349Z,9.50
2019-05-07T09:07:02.983Z,9.50
2019-05-07T09:09:33.428Z,9.60
2019-05-07T09:12:03.239Z,9.60
2019-05-07T09:14:32.691Z,9.70
2019-05-07T09:17:02.783Z,9.80
2019-05-07T09:19:46.928Z,9.80
2019-05-07T09:22:04.616Z,9.80
2019-05-07T09:24:33.960Z,9.90
2019-05-07T09:27:12.219Z,9.90
2019-05-07T09:30:15.812Z,9.90
2019-05-07T09:32:52.100Z,9.90
2019-05-07T09:35:28.485Z,9.90
2019-05-07T09:37:57.843Z,9.90
2019-05-07T09:40:27.173Z,9.90
2019-05-07T09:42:56.501Z,10.00
2019-05-07T09:45:25.804Z,9.90
2019-05-07T09:47:55.189Z,9.90
2019-05-07T09:50:24.494Z,9.90
2019-05-07T09:52:53.829Z,10.00
2019-05-07T09:55:23.423Z,10.00
2019-05-07T09:57:52.958Z,10.10
2019-05-07T10:00:23.921Z,10.10
2019-05-07T10:02:54.177Z,10.20
2019-05-07T10:05:24.374Z,10.20
2019-05-07T10:07:53.703Z,10.20
2019-05-07T10:10:23.233Z,10.30
2019-05-07T10:13:01.892Z,10.30
2019-05-07T10:15:33.218Z,10.40
2019-05-07T10:18:22.877Z,10.40
2019-05-07T10:20:52.373Z,10.50
2019-05-07T10:23:22.965Z,10.50
2019-05-07T10:25:56.230Z,10.60
2019-05-07T10:28:25.768Z,10.60
2019-05-07T10:30:55.414Z,10.70
2019-05-07T10:33:24.819Z,10.80
2019-05-07T10:35:54.170Z,10.80
2019-05-07T10:38:23.506Z,10.90
2019-05-07T10:40:52.873Z,11.00
2019-05-07T10:43:22.398Z,11.00
2019-05-07T10:46:13.623Z,11.10
2019-05-07T10:48:53.533Z,11.10
2019-05-07T10:51:23.177Z,11.20
2019-05-07T10:53:52.515Z,11.20
2019-05-07T10:56:22.281Z,11.30
2019-05-07T10:58:52.297Z,11.30
2019-05-07T11:01:29.563Z,11.40
2019-05-07T11:03:58.877Z,11.40
2019-05-07T11:06:28.212Z,11.40
2019-05-07T11:08:57.569Z,11.40
2019-05-07T11:11:26.886Z,11.40
2019-05-07T11:13:56.325Z,11.50
2019-05-07T11:16:28.594Z,11.60
2019-05-07T11:18:57.950Z,11.60
2019-05-07T11:21:30.385Z,11.70
2019-05-07T11:24:03.118Z,11.70
2019-05-07T11:26:32.931Z,11.70
2019-05-07T11:29:02.577Z,11.80
2019-05-07T11:31:33.181Z,11.90
2019-05-07T11:34:03.030Z,11.90
2019-05-07T11:36:34.403Z,12.00
2019-05-07T11:39:04.710Z,12.10
2019-05-07T11:41:52.278Z,12.10
2019-05-07T11:44:24.879Z,12.20
2019-05-07T11:47:12.415Z,12.20
2019-05-07T11:49:59.878Z,12.30
2019-05-07T11:52:35.723Z,12.30
2019-05-07T11:55:04.811Z,12.30
2019-05-07T11:57:34.159Z,12.30
2019-05-07T12:00:04.355Z,12.30
2019-05-07T12:02:33.681Z,12.30
2019-05-07T12:05:03.010Z,12.30
2019-05-07T12:07:32.765Z,12.30
2019-05-07T12:10:04.902Z,12.30
2019-05-07T12:12:33.356Z,12.40
2019-05-07T12:15:02.767Z,12.40
2019-05-07T12:17:32.104Z,12.50
2019-05-07T12:20:02.331Z,12.50
2019-05-07T12:22:47.469Z,12.60
2019-05-07T12:25:18.042Z,12.60
2019-05-07T12:27:48.517Z,12.60
2019-05-07T12:30:25.720Z,12.60
2019-05-07T12:33:02.358Z,12.60
2019-05-07T12:35:31.852Z,12.60
2019-05-07T12:38:02.116Z,12.60
2019-05-07T12:40:32.520Z,12.60
2019-05-07T12:43:02.140Z,12.70
2019-05-07T12:45:31.590Z,12.70
2019-05-07T12:48:02.378Z,12.70
2019-05-07T12:50:32.325Z,12.80
2019-05-07T12:53:07.950Z,13.00
2019-05-07T12:55:42.851Z,13.10
2019-05-07T12:58:12.698Z,13.20
2019-05-07T13:00:56.910Z,13.30
2019-05-07T13:03:35.984Z,13.30
2019-05-07T13:06:05.452Z,13.40
2019-05-07T13:08:34.817Z,13.40
2019-05-07T13:11:04.391Z,13.50
2019-05-07T13:13:33.744Z,13.50
2019-05-07T13:16:03.165Z,13.50
2019-05-07T13:18:32.560Z,13.50
2019-05-07T13:21:02.470Z,13.60
2019-05-07T13:23:31.994Z,13.60
2019-05-07T13:26:02.592Z,13.70
2019-05-07T13:28:32.165Z,13.90
2019-05-07T13:31:02.408Z,14.00
2019-05-07T13:33:34.518Z,14.10
2019-05-07T13:36:04.540Z,14.20
2019-05-07T13:38:51.896Z,14.30
2019-05-07T13:41:58.608Z,14.40
2019-05-07T13:44:45.497Z,14.40
2019-05-07T13:47:25.796Z,14.40
2019-05-07T13:49:55.832Z,14.30
2019-05-07T13:52:25.861Z,14.30
2019-05-07T13:54:55.759Z,14.20
2019-05-07T13:57:25.126Z,14.30
2019-05-07T13:59:54.891Z,14.40
2019-05-07T14:02:26.436Z,14.50
2019-05-07T14:04:56.354Z,14.70
2019-05-07T14:07:27.469Z,14.80
2019-05-07T14:09:56.845Z,14.80
2019-05-07T14:12:26.466Z,14.80
2019-05-07T14:14:55.873Z,14.90
2019-05-07T14:17:25.214Z,14.90
2019-05-07T14:19:54.711Z,14.90
2019-05-07T14:22:24.132Z,14.90
2019-05-07T14:24:53.612Z,14.90
2019-05-07T14:27:23.031Z,14.80
2019-05-07T14:29:52.430Z,14.80
2019-05-07T14:32:27.879Z,14.80
2019-05-07T14:35:13.348Z,14.70
2019-05-07T14:37:52.731Z,14.60
2019-05-07T14:40:24.934Z,14.50
2019-05-07T14:42:59.974Z,14.50
2019-05-07T14:45:29.478Z,14.40
2019-05-07T14:47:58.965Z,14.30
2019-05-07T14:50:28.465Z,14.20
2019-05-07T14:52:58.119Z,14.10
2019-05-07T14:55:27.861Z,14.10
2019-05-07T14:57:57.252Z,14.00
2019-05-07T15:00:26.751Z,14.00
2019-05-07T15:02:56.236Z,13.90
2019-05-07T15:05:26.546Z,13.80
2019-05-07T15:08:07.331Z,13.70
2019-05-07T15:10:27.102Z,13.60
2019-05-07T15:12:56.618Z,13.50
2019-05-07T15:15:26.310Z,13.50
2019-05-07T15:18:00.802Z,13.40
2019-05-07T15:20:30.290Z,13.30
2019-05-07T15:23:18.772Z,13.30
2019-05-07T15:25:48.677Z,13.20
2019-05-07T15:28:18.748Z,13.20
2019-05-07T15:31:03.045Z,13.20
2019-05-07T15:33:32.505Z,13.10
2019-05-07T15:36:02.881Z,13.10
2019-05-07T15:38:32.651Z,13.10
2019-05-07T15:41:02.293Z,13.10
2019-05-07T15:43:32.494Z,13.10
2019-05-07T15:46:02.171Z,13.10
2019-05-07T15:48:32.664Z,13.00
2019-05-07T15:51:02.259Z,13.10
2019-05-07T15:53:45.856Z,13.10
2019-05-07T15:56:15.257Z,13.00
2019-05-07T15:58:44.749Z,13.00
2019-05-07T16:01:14.232Z,13.00
2019-05-07T16:03:44.475Z,13.00
2019-05-07T16:06:14.034Z,13.00
2019-05-07T16:08:50.251Z,13.10
2019-05-07T16:11:19.855Z,13.10
2019-05-07T16:14:14.205Z,13.20
2019-05-07T16:16:43.866Z,13.30
2019-05-07T16:19:21.304Z,13.50
2019-05-07T16:21:50.714Z,13.50
2019-05-07T16:24:22.433Z,13.60
2019-05-07T16:26:52.347Z,13.60
2019-05-07T16:29:22.524Z,13.60
2019-05-07T16:31:52.231Z,13.50
2019-05-07T16:34:24.552Z,13.50
2019-05-07T16:36:52.901Z,13.50
2019-05-07T16:39:22.286Z,13.40
2019-05-07T16:41:52.606Z,13.40
2019-05-07T16:44:22.597Z,13.40
2019-05-07T16:46:53.469Z,13.30
2019-05-07T16:49:23.074Z,13.30
2019-05-07T16:51:55.420Z,13.30
2019-05-07T16:54:24.836Z,13.30
2019-05-07T16:57:12.282Z,13.20
2019-05-07T16:59:42.727Z,13.20
2019-05-07T17:02:17.419Z,13.10
2019-05-07T17:05:06.592Z,13.00
2019-05-07T17:07:38.729Z,13.00
2019-05-07T17:10:08.959Z,13.00
2019-05-07T17:12:41.755Z,13.00
2019-05-07T17:15:12.378Z,13.00
2019-05-07T17:17:42.778Z,13.00
2019-05-07T17:20:12.762Z,13.00
2019-05-07T17:22:42.787Z,13.00
2019-05-07T17:25:30.096Z,13.10
2019-05-07T17:28:02.884Z,13.10
2019-05-07T17:30:32.426Z,13.10
2019-05-07T17:33:02.013Z,13.10
2019-05-07T17:35:34.219Z,13.00
2019-05-07T17:38:08.164Z,13.00
2019-05-07T17:40:33.683Z,13.00
2019-05-07T17:43:03.290Z,13.00
2019-05-07T17:45:33.032Z,13.00
2019-05-07T17:48:03.231Z,12.90
2019-05-07T17:50:58.206Z,12.90
2019-05-07T17:53:27.735Z,12.90
2019-05-07T17:55:57.294Z,12.80
2019-05-07T17:58:26.729Z,12.80
2019-05-07T18:00:58.667Z,12.80
2019-05-07T18:03:35.803Z,12.80
2019-05-07T18:06:06.009Z,12.70
2019-05-07T18:08:35.626Z,12.60
2019-05-07T18:11:17.413Z,12.60
2019-05-07T18:13:36.210Z,12.50
2019-05-07T18:16:15.528Z,12.50
2019-05-07T18:18:44.948Z,12.50
2019-05-07T18:21:14.377Z,12.50
2019-05-07T18:23:44.095Z,12.50
2019-05-07T18:26:26.953Z,12.50
2019-05-07T18:28:44.714Z,12.40
2019-05-07T18:31:15.839Z,12.40
2019-05-07T18:33:52.323Z,12.30
2019-05-07T18:36:22.721Z,12.30
2019-05-07T18:38:52.860Z,12.20
2019-05-07T18:41:22.504Z,12.20
2019-05-07T18:43:54.605Z,12.10
2019-05-07T18:46:23.119Z,12.10
2019-05-07T18:48:52.573Z,12.10
2019-05-07T18:51:21.973Z,12.00
2019-05-07T18:53:51.923Z,12.00
2019-05-07T18:56:22.153Z,11.90
2019-05-07T18:58:52.125Z,11.90
2019-05-07T19:01:23.386Z,11.80
2019-05-07T19:03:53.481Z,11.70
2019-05-07T19:06:22.989Z,11.60
2019-05-07T19:08:52.761Z,11.50
2019-05-07T19:11:22.870Z,11.40
2019-05-07T19:13:52.835Z,11.40
2019-05-07T19:16:23.457Z,11.30
2019-05-07T19:18:52.790Z,11.20
2019-05-07T19:21:22.451Z,11.10
2019-05-07T19:23:53.016Z,11.10
2019-05-07T19:26:22.476Z,11.00
2019-05-07T19:28:51.891Z,10.90
2019-05-07T19:31:21.983Z,10.90
2019-05-07T19:33:52.493Z,10.80
2019-05-07T19:36:22.426Z,10.70
2019-05-07T19:38:52.674Z,10.70
2019-05-07T19:41:22.239Z,10.60
2019-05-07T19:43:52.755Z,10.60
2019-05-07T19:46:22.936Z,10.50
2019-05-07T19:48:52.411Z,10.50
2019-05-07T19:51:21.894Z,10.50
2019-05-07T19:53:52.559Z,10.40
2019-05-07T19:56:23.849Z,10.30
2019-05-07T19:58:53.472Z,10.30
2019-05-07T20:01:27.780Z,10.20
2019-05-07T20:03:57.334Z,10.20
2019-05-07T20:06:26.895Z,10.20
2019-05-07T20:09:08.983Z,10.10
2019-05-07T20:11:42.485Z,10.10
2019-05-07T20:14:12.211Z,10.10
2019-05-07T20:16:42.121Z,10.10
2019-05-07T20:19:12.210Z,10.00
2019-05-07T20:21:41.810Z,10.00
2019-05-07T20:24:12.445Z,9.90
2019-05-07T20:26:42.994Z,9.90
2019-05-07T20:29:12.755Z,9.90
2019-05-07T20:31:42.507Z,9.80
2019-05-07T20:34:13.066Z,9.80
2019-05-07T20:36:42.846Z,9.80
2019-05-07T20:39:12.863Z,9.70
2019-05-07T20:41:43.100Z,9.70
2019-05-07T20:44:12.922Z,9.60
2019-05-07T20:46:42.393Z,9.60
2019-05-07T20:49:14.682Z,9.60
2019-05-07T20:51:44.504Z,9.50
2019-05-07T20:54:42.041Z,9.50
2019-05-07T20:57:17.371Z,9.40
2019-05-07T20:59:46.813Z,9.40
2019-05-07T21:02:16.234Z,9.30
2019-05-07T21:04:45.695Z,9.30
2019-05-07T21:07:15.049Z,9.20
2019-05-07T21:09:44.439Z,9.20
2019-05-07T21:12:13.795Z,9.20
2019-05-07T21:14:43.171Z,9.20
2019-05-07T21:17:12.525Z,9.10
2019-05-07T21:19:42.819Z,9.00
2019-05-07T21:22:13.030Z,9.00
2019-05-07T21:24:42.637Z,9.00
2019-05-07T21:27:12.314Z,8.90
2019-05-07T21:29:42.358Z,8.90
2019-05-07T21:32:12.505Z,8.80
2019-05-07T21:34:42.272Z,8.80
2019-05-07T21:37:12.674Z,8.70
2019-05-07T21:39:42.535Z,8.70
2019-05-07T21:42:14.190Z,8.70
2019-05-07T21:44:43.254Z,8.70
2019-05-07T21:47:12.812Z,8.60
2019-05-07T21:49:43.082Z,8.60
2019-05-07T21:52:12.838Z,8.50
2019-05-07T21:55:02.349Z,8.50
2019-05-07T21:58:08.597Z,8.50
2019-05-07T22:00:55.386Z,8.50
2019-05-07T22:03:24.838Z,8.40
2019-05-07T22:05:54.220Z,8.40
2019-05-07T22:08:23.621Z,8.30
2019-05-07T22:10:52.977Z,8.30
2019-05-07T22:13:22.390Z,8.20
2019-05-07T22:15:52.215Z,8.20
2019-05-07T22:18:22.971Z,8.20
2019-05-07T22:20:52.377Z,8.10
2019-05-07T22:23:22.574Z,8.10
2019-05-07T22:25:52.826Z,8.00
2019-05-07T22:28:22.498Z,8.00
2019-05-07T22:31:08.351Z,8.00
2019-05-07T22:33:54.138Z,7.90
2019-05-07T22:36:23.488Z,7.90
2019-05-07T22:38:52.889Z,7.80
2019-05-07T22:41:22.590Z,7.80
2019-05-07T22:43:51.980Z,7.70
2019-05-07T22:46:22.334Z,7.70
2019-05-07T22:48:52.081Z,7.70
2019-05-07T22:51:22.814Z,7.60
2019-05-07T22:53:52.259Z,7.60
2019-05-07T22:56:33.924Z,7.60
2019-05-07T22:58:53.929Z,7.50
2019-05-07T23:01:23.319Z,7.40
2019-05-07T23:03:54.053Z,7.40
2019-05-07T23:06:23.466Z,7.40
2019-05-07T23:08:53.150Z,7.40
2019-05-07T23:11:23.018Z,7.40
2019-05-07T23:13:54.754Z,7.30
2019-05-07T23:16:25.173Z,7.30
2019-05-07T23:18:54.548Z,7.30
2019-05-07T23:21:24.601Z,7.30
2019-05-07T23:23:54.280Z,7.30
2019-05-07T23:26:23.592Z,7.20
2019-05-07T23:28:52.917Z,7.20
2019-05-07T23:31:22.975Z,7.20
2019-05-07T23:33:52.508Z,7.20
2019-05-07T23:36:22.588Z,7.20
2019-05-07T23:38:52.306Z,7.10
2019-05-07T23:41:42.058Z,7.10
2019-05-07T23:44:16.555Z,7.10
2019-05-07T23:46:45.885Z,7.10
2019-05-07T23:49:15.193Z,7.00
2019-05-07T23:51:44.555Z,7.00
2019-05-07T23:54:13.859Z,7.00
2019-05-07T23:56:43.206Z,7.00
2019-05-07T23:59:14.892Z,7.00
